Flight Track Log - Related Links

Times and Time Zones

All times are in EDT time to prevent confusion due to time zone crossing. See the SWA2236 flight status page for this flight to view local times or setup timezone preferences in your user account.

Time Position Orientation Groundspeed Altitude Reporting Facility
EDT Latitude Longitude Course Direction KTS MPH feet Rate Location/Type
Mon 11:06:04 AM 41.2136 -95.8958 181° South 202 232 4,900  Level Minneapolis Center
Mon 11:06:13 AM 41.2128 -95.8936 116° Southeast 191 220 4,900 2,556 Level Minneapolis Center
Mon 11:06:58 AM 41.1481 -95.9172 195° South 280 322 7,200 2,613 Climbing Minneapolis Center
Mon 11:07:15 AM 41.1425 -95.9233 220° Southwest 246 283 7,600 3,443 Climbing Minneapolis Center
Mon 11:07:59 AM 41.1017 -96.0083 238° Southwest 296 341 10,700 3,484 Climbing Minneapolis Center
Mon 11:08:17 AM 41.0897 -96.0331 237° Southwest 286 329 11,200 2,475 Climbing Minneapolis Center
Mon 11:09:19 AM 41.0336 -96.1411 235° Southwest 351 404 14,000 2,516 Climbing Minneapolis Center
Mon 11:10:21 AM 40.9867 -96.2622 243° Southwest 365 420 16,400 2,274 Climbing Minneapolis Center
Mon 11:11:23 AM 40.9333 -96.3894 241° Southwest 383 441 18,700 2,323 Climbing Minneapolis Center
Mon 11:12:25 AM 40.8797 -96.5208 242° Southwest 398 458 21,200 2,419 Climbing Minneapolis Center
Mon 11:13:27 AM 40.8247 -96.6544 241° Southwest 410 472 23,700 2,226 Climbing Minneapolis Center
Mon 11:14:29 AM 40.7694 -96.7892 242° Southwest 415 478 25,800 2,032 Climbing Minneapolis Center
Mon 11:15:31 AM 40.7003 -96.9525 241° Southwest 421 484 27,900 1,645 Climbing Minneapolis Center
Mon 11:16:33 AM 40.6417 -97.0933 241° Southwest 433 498 29,200 1,619 Climbing Minneapolis Center
Mon 11:17:37 AM 40.5814 -97.2367 241° Southwest 443 510 31,300 2,095 Climbing Minneapolis Center
Mon 11:18:39 AM 40.5258 -97.3675 241° Southwest 439 505 33,600 2,274 Climbing Minneapolis Center
Mon 11:19:41 AM 40.4608 -97.5203 241° Southwest 411 473 36,000 1,161 Climbing Minneapolis Center
Mon 11:20:43 AM 40.4089 -97.6447 241° Southwest 394 453 36,000  Level Minneapolis Center
Mon 11:21:45 AM 40.3544 -97.7700 240° Southwest 393 452 36,000  Level Minneapolis Center
Mon 11:22:47 AM 40.3008 -97.8969 241° Southwest 396 456 36,000  Level Minneapolis Center
Mon 11:23:49 AM 40.2461 -98.0217 240° Southwest 395 455 36,000  Level Minneapolis Center
Mon 11:24:51 AM 40.1911 -98.1489 241° Southwest 398 458 36,000 532 Level Minneapolis Center
Mon 11:25:53 AM 40.1253 -98.3014 241° Southwest 400 460 37,100 912 Climbing Minneapolis Center
Mon 11:26:56 AM 40.0689 -98.4283 240° Southwest 402 463 37,900 432 Climbing Minneapolis Center
Mon 11:27:58 AM 40.0131 -98.5578 241° Southwest 405 466 38,000 44 Climbing Minneapolis Center
Mon 11:29:12 AM 39.9550 -98.6867 240° Southwest 409 471 38,000  Level Minneapolis Center
Mon 11:30:14 AM 39.8872 -98.8422 240° Southwest 410 472 38,000  Level Minneapolis Center
Mon 11:31:16 AM 39.8294 -98.9711 240° Southwest 410 472 38,000  Level Minneapolis Center
Mon 11:32:18 AM 39.7717 -99.1008 240° Southwest 412 474 38,000  Level Minneapolis Center
Mon 11:33:20 AM 39.7033 -99.2561 240° Southwest 412 474 38,000  Level Minneapolis Center
Mon 11:34:23 AM 39.6461 -99.3853 240° Southwest 412 474 38,000  Level Minneapolis Center
Mon 11:35:37 AM 39.5897 -99.5142 240° Southwest 411 473 38,000  Level Minneapolis Center
Mon 11:36:39 AM 39.5286 -99.6728 243° Southwest 408 470 38,000  Level Minneapolis Center
Mon 11:37:41 AM 39.4789 -99.8078 245° Southwest 409 471 38,000  Level Minneapolis Center
Mon 11:38:43 AM 39.4283 -99.9439 244° Southwest 412 474 38,000  Level Minneapolis Center
Mon 11:39:45 AM 39.3886 -100.0514 244° Southwest 414 476 38,000  Level Minneapolis Center
Mon 11:40:52 AM 39.3114 -100.2439 243° Southwest 414 476 38,000  Level Denver Center
Mon 11:41:54 AM 39.2622 -100.3708 243° Southwest 413 475 38,000  Level Denver Center
Mon 11:42:56 AM 39.2033 -100.5178 243° Southwest 412 474 38,000  Level Denver Center
Mon 11:43:58 AM 39.1544 -100.6442 244° Southwest 412 474 38,000  Level Denver Center
Mon 11:45:00 AM 39.0961 -100.7925 243° Southwest 413 475 38,000  Level Denver Center
Mon 11:46:02 AM 39.0458 -100.9206 243° Southwest 417 480 38,000  Level Denver Center
Mon 11:47:04 AM 38.9925 -101.0572 243° Southwest 419 482 38,000  Level Denver Center
Mon 11:48:07 AM 38.9331 -101.2072 243° Southwest 422 486 38,000  Level Denver Center
Mon 11:49:20 AM 38.8825 -101.3353 243° Southwest 422 486 38,000  Level Denver Center
Mon 11:50:23 AM 38.8133 -101.5056 243° Southwest 423 487 38,000  Level Denver Center
Mon 11:51:25 AM 38.7614 -101.6333 242° Southwest 422 486 38,000  Level Denver Center
Mon 11:52:27 AM 38.7019 -101.7800 243° Southwest 420 483 38,000  Level Denver Center
Mon 11:53:29 AM 38.6506 -101.9064 243° Southwest 420 483 38,000  Level Denver Center
Mon 11:54:31 AM 38.5911 -102.0539 243° Southwest 419 482 38,000  Level Denver Center
Mon 11:55:33 AM 38.5367 -102.1814 241° Southwest 426 490 38,000  Level Denver Center
Mon 11:56:35 AM 38.4758 -102.3303 242° Southwest 425 489 38,000  Level Denver Center
Mon 11:57:37 AM 38.4228 -102.4575 242° Southwest 426 490 38,000  Level Denver Center
Mon 11:58:39 AM 38.3617 -102.6067 242° Southwest 426 490 38,000  Level Denver Center
Mon 11:59:42 AM 38.3078 -102.7336 242° Southwest 426 490 38,000  Level Denver Center
Mon 12:00:44 PM 38.2458 -102.8836 242° Southwest 429 494 38,000  Level Denver Center
Mon 12:01:46 PM 38.1925 -103.0086 242° Southwest 424 488 38,000  Level Denver Center
Mon 12:02:48 PM 38.1272 -103.1619 242° Southwest 423 487 38,000  Level Denver Center
Mon 12:03:50 PM 38.0733 -103.2886 242° Southwest 424 488 38,000  Level Denver Center
Mon 12:04:52 PM 38.0208 -103.4136 242° Southwest 422 486 38,000  Level Denver Center
Mon 12:06:06 PM 37.9578 -103.5600 241° Southwest 423 487 38,000  Level Denver Center
Mon 12:07:09 PM 37.8856 -103.7267 241° Southwest 426 490 38,000  Level Denver Center
Mon 12:08:11 PM 37.8325 -103.8517 242° Southwest 423 487 38,000  Level Denver Center
Mon 12:09:13 PM 37.7678 -103.9986 241° Southwest 430 495 38,000  Level Denver Center
Mon 12:10:15 PM 37.7231 -104.1033 242° Southwest 431 496 38,000  Level Denver Center
Mon 12:11:17 PM 37.6497 -104.2694 241° Southwest 430 495 38,000  Level Denver Center
Mon 12:12:19 PM 37.5942 -104.3950 241° Southwest 431 496 38,000  Level Denver Center
Mon 12:13:21 PM 37.5303 -104.5392 241° Southwest 426 490 38,000  Level Denver Center
Mon 12:14:23 PM 37.4747 -104.6631 241° Southwest 424 488 38,000  Level Denver Center
Mon 12:15:25 PM 37.4103 -104.8072 241° Southwest 424 488 38,000  Level Denver Center
Mon 12:16:28 PM 37.3558 -104.9314 241° Southwest 423 487 38,000  Level Denver Center
Mon 12:17:30 PM 37.2911 -105.0747 240° Southwest 422 486 38,000  Level Denver Center
Mon 12:18:44 PM 37.2344 -105.1981 240° Southwest 426 490 38,000  Level Denver Center
Mon 12:19:46 PM 37.1597 -105.3622 240° Southwest 424 488 38,000  Level Denver Center
Mon 12:20:48 PM 37.0936 -105.5072 240° Southwest 427 491 38,000  Level Denver Center
Mon 12:21:51 PM 37.0358 -105.6322 240° Southwest 432 497 38,000  Level Denver Center
Mon 12:22:52 PM 36.9878 -105.7367 240° Southwest 434 499 38,000  Level Denver Center
Mon 12:23:54 PM 36.9119 -105.9028 240° Southwest 430 495 38,000  Level Denver Center
Mon 12:24:56 PM 36.8531 -106.0261 239° Southwest 430 495 38,000  Level Denver Center
Mon 12:25:58 PM 36.7867 -106.1722 240° Southwest 429 494 38,000  Level Denver Center
Mon 12:27:01 PM 36.7275 -106.3006 240° Southwest 427 491 38,000  Level Denver Center
Mon 12:28:03 PM 36.6672 -106.4289 240° Southwest 429 494 38,000  Level Denver Center
Mon 12:29:05 PM 36.6042 -106.5633 240° Southwest 427 491 38,000  Level Denver Center
Mon 12:30:07 PM 36.5361 -106.7061 239° Southwest 428 493 38,000  Level Denver Center
Mon 12:31:09 PM 36.4778 -106.8289 239° Southwest 429 494 38,000  Level Denver Center
Mon 12:32:11 PM 36.4092 -106.9717 239° Southwest 430 495 38,000  Level Denver Center
Mon 12:33:13 PM 36.3517 -107.0944 240° Southwest 429 494 38,000  Level Denver Center
Mon 12:34:15 PM 36.2933 -107.2158 239° Southwest 428 493 38,000  Level Denver Center
Mon 12:35:16 PM 36.2350 -107.3367 239° Southwest 427 491 38,000  Level Denver Center
Mon 12:36:26 PM 36.1567 -107.4992 239° Southwest 427 491 38,000  Level Albuquerque Center
Mon 12:37:26 PM 36.0994 -107.6192 239° Southwest 424 488 38,000  Level Albuquerque Center
Mon 12:38:27 PM 36.0294 -107.7606 239° Southwest 428 493 38,000  Level Albuquerque Center
Mon 12:39:29 PM 35.9661 -107.8778 236° Southwest 428 493 38,000  Level Albuquerque Center
Mon 12:40:32 PM 35.8839 -108.0078 232° Southwest 428 493 38,000  Level Albuquerque Center
Mon 12:41:33 PM 35.8147 -108.1181 232° Southwest 425 489 38,000  Level Albuquerque Center
Mon 12:42:36 PM 35.7464 -108.2303 233° Southwest 425 489 38,000  Level Albuquerque Center
Mon 12:43:37 PM 35.6658 -108.3586 232° Southwest 423 487 38,000  Level Albuquerque Center
Mon 12:44:40 PM 35.5964 -108.4700 233° Southwest 425 489 38,000  Level Albuquerque Center
Mon 12:45:41 PM 35.5136 -108.5986 232° Southwest 426 490 38,000  Level Albuquerque Center
Mon 12:46:43 PM 35.4442 -108.7089 232° Southwest 424 488 38,000 -144 Level Albuquerque Center
Mon 12:47:46 PM 35.3633 -108.8367 232° Southwest 423 487 37,700 -439 Descending Albuquerque Center
Mon 12:48:46 PM 35.2939 -108.9456 232° Southwest 422 486 37,100 -290 Descending Albuquerque Center
Mon 12:49:50 PM 35.2231 -109.0556 232° Southwest 425 489 37,100 -571 Level Albuquerque Center
Mon 12:50:52 PM 35.1408 -109.1831 232° Southwest 426 490 35,900 -1,024 Descending Albuquerque Center
Mon 12:51:53 PM 35.0708 -109.2942 232° Southwest 428 493 35,000 -919 Descending Albuquerque Center
Mon 12:52:56 PM 34.9864 -109.4247 232° Southwest 434 499 34,000 -968 Descending Albuquerque Center
Mon 12:53:57 PM 34.9144 -109.5381 232° Southwest 439 505 33,000 -934 Descending Albuquerque Center
Mon 12:54:58 PM 34.8314 -109.6658 232° Southwest 434 499 32,100 -432 Descending Albuquerque Center
Mon 12:56:02 PM 34.7572 -109.7786 231° Southwest 438 504 32,100 -476 Level Albuquerque Center
Mon 12:57:04 PM 34.6903 -109.8989 236° Southwest 447 514 31,100 -976 Descending Albuquerque Center
Mon 12:58:05 PM 34.6358 -110.0525 247° West 443 510 30,100 -492 Descending Albuquerque Center
Mon 12:59:06 PM 34.5897 -110.1864 247° West 447 514 30,100  Level Albuquerque Center
Mon 01:00:10 PM 34.5311 -110.3317 244° Southwest 435 501 30,100  Level Albuquerque Center
Mon 01:01:11 PM 34.4894 -110.4475 246° West 428 493 30,100  Level Albuquerque Center
Mon 01:02:12 PM 34.4297 -110.6039 245° Southwest 428 493 30,100 -492 Level Albuquerque Center
Mon 01:03:13 PM 34.3544 -110.7125 230° Southwest 420 483 29,100 -1,488 Descending Albuquerque Center
Mon 01:04:17 PM 34.2775 -110.8178 229° Southwest 420 483 27,000 -2,032 Descending Albuquerque Center
Mon 01:05:17 PM 34.2083 -110.9219 231° Southwest 405 466 24,900 -2,016 Descending Albuquerque Center
Mon 01:06:22 PM 34.1406 -111.0236 231° Southwest 394 453 22,800 -1,968 Descending Albuquerque Center
Mon 01:07:22 PM 34.0731 -111.1222 230° Southwest 385 443 20,800 -1,983 Descending Albuquerque Center
Mon 01:08:23 PM 34.0078 -111.2183 231° Southwest 375 432 18,800 -2,112 Descending Albuquerque Center
Mon 01:09:27 PM 33.9328 -111.3306 231° Southwest 360 414 16,400 -1,714 Descending Albuquerque Center
Mon 01:10:29 PM 33.8722 -111.4200 231° Southwest 344 396 15,200 -1,366 Descending Albuquerque Center
Mon 01:11:30 PM 33.8253 -111.5119 238° Southwest 323 372 13,600 -1,623 Descending Albuquerque Center
Mon 01:12:31 PM 33.7778 -111.6019 238° Southwest 318 366 11,900 -1,597 Descending Albuquerque Center
Mon 01:13:34 PM 33.7314 -111.6900 238° Southwest 310 357 10,300 -919 Descending Albuquerque Center
Mon 01:14:35 PM 33.6831 -111.7781 237° Southwest 305 351 10,000 -145 Descending Albuquerque Center
Mon 01:15:38 PM 33.6397 -111.8583 237° Southwest 297 342 10,000 -836 Level Albuquerque Center
Mon 01:16:37 PM 33.5833 -111.9500 234° Southwest 294 338 8,300 -1,412 Descending Phoenix TRACON
Mon 01:17:37 PM 33.5500 -112.0333 244° Southwest 288 331 7,200 -800 Descending Phoenix TRACON
Mon 01:18:37 PM 33.5333 -112.1167 257° West 248 285 6,700 -850 Descending Phoenix TRACON
Mon 01:19:44 PM 33.5178 -112.1992 257° West 246 283 5,400 -1,282 Descending Albuquerque Center
Mon 01:20:48 PM 33.4583 -112.2106 189° South 227 261 3,900 -1,210 Descending Albuquerque Center
Mon 01:21:48 PM 33.4411 -112.1478 108° East 201 231 2,900 -914 Descending Albuquerque Center
Mon 01:22:33 PM 33.4333 -112.1000 101° East 156 180 2,300 -727 Descending Phoenix TRACON
Mon 01:23:27 PM 33.4333 -112.0667 90° East 139 160 1,700 -667 Descending Phoenix TRACON

Login

Don't have an account? Register now (free) for customized features, flight alerts, and more!